Route Details

Aircraft Information
Group: North America Fleet
Types: B738, B752, B762, B763
Route Data
Distance: 943nm
Duration: 2h 50m
Origin METAR: CYVR 010600Z 08004KT 3SM -SN OVC023 00/00 A3019 RMK SC8 SLP225
Dest. METAR: KONT 010553Z 06009KT 10SM CLR 12/M12 A3011 RMK AO2 SLP193 T01221122 10150 20122 53015
Freight Data
(for Feb 1, 2023)
Load Factor:
82%
Manifested Cargo: 65,039lbs
Financial History
Total Freight: 238,900lbs
Average Load: 0lbs/flt
Fuel Used: 108,156lbs
Avg. Fuel Used: 0lbs/flt
Fuel Expense: $57,609
Avg. Fuel Expense: $0
Avg. Fuel Cost: $0/lbs
Total Gross Income: $609,195
Pilot Pay: $1,025
Total Expenses: $124,517
Total Revenue: $422,726
Average Revenue: $0

Capitol Logistics 390




CYVR
Vancouver International Airport
Vancouver, CA
KONT
Ontario International Airport
Ontario, US

Activity Log

Date Flight Route Aircraft Duration
01/29/2023 CPX390 Capitol Logistics (smartCARS) B763 2h 33m
12/15/2022 CPX390 DCT YVR J5 TIOGA DCT OYVEY GLRNO2 B763 2h 31m
08/02/2022 CPX390 DCT YVR J5 EHF ZIGGY7 B752 2h 29m
07/18/2022 CPX390 YVR J5 EHF ZIGGY7 B763 2h 18m
07/14/2022 CPX390 DCT YVR J5 EHF ZIGGY7 B763 2h 45m